Terminal Aerodrome Forecast
Issued by NWS

Home | Current Version | Previous Version | Text Only | Print | Product List | Glossary On
Versions: 1 2 3 4 5 6 7 8 9 10 11 12 13 14 15 16 17 18 19 20 21
000
FTUS41 KPBZ 262000 AAB
TAFLBE
TAF AMD
KLBE 262002Z 2620/2718 33010KT 5SM -SHRA SCT007 OVC015
      TEMPO 2620/2622 2SM -SHRA BR BKN007
     FM270500 33008KT P6SM -SHSN BKN015
     FM271600 32007KT P6SM -SHRASN BKN025=

USA.gov is the U.S. government's official web portal to all federal, state and local government web resources and services.